Time;durP1;ratioP1;P1;durP2;ratioP2;P2;SDS_P1;SDS_P2;PMS_P1;PMS_P2;Temp;Humidity;BMP_temperature;BMP_pressure;BME280_temperature;BME280_humidity;BME280_pressure;Samples;Min_cycle;Max_cycle;Signal;HPM_P1;HPM_P2
2023/03/11 00:02:10;;;;;;;4.17;1.37;;;3.80;99.90;;;;;;4975176;28;20462;-86
2023/03/11 00:04:36;;;;;;;3.22;1.15;;;3.80;99.90;;;;;;4996654;28;20026;-86
2023/03/11 00:07:05;;;;;;;2.13;1.10;;;3.70;99.90;;;;;;4966963;28;20321;-86
2023/03/11 00:09:31;;;;;;;3.38;1.30;;;3.60;99.90;;;;;;4993489;28;20448;-85
2023/03/11 00:11:56;;;;;;;3.43;1.20;;;3.60;99.90;;;;;;4997932;28;20116;-85
2023/03/11 00:14:22;;;;;;;2.00;1.00;;;3.60;99.90;;;;;;4977320;28;20487;-85
2023/03/11 00:16:47;;;;;;;3.10;1.07;;;3.60;99.90;;;;;;4975293;28;20706;-86
2023/03/11 00:19:13;;;;;;;3.05;1.27;;;3.60;99.90;;;;;;4991977;28;20026;-86
2023/03/11 00:21:39;;;;;;;3.27;1.23;;;3.60;99.90;;;;;;4971902;28;20027;-87
2023/03/11 00:24:05;;;;;;;3.77;1.30;;;3.60;99.90;;;;;;4974232;28;20076;-86
2023/03/11 00:26:30;;;;;;;3.25;1.33;;;3.60;99.90;;;;;;4970709;28;20076;-86
2023/03/11 00:28:56;;;;;;;4.30;1.20;;;3.60;99.90;;;;;;4990839;28;20256;-85
2023/03/11 00:31:22;;;;;;;3.50;1.10;;;3.60;99.90;;;;;;4979940;28;20033;-84
2023/03/11 00:33:47;;;;;;;2.58;1.33;;;3.60;99.90;;;;;;5008408;28;20025;-86
2023/03/11 00:36:27;;;;;;;2.10;1.03;;;3.60;99.90;;;;;;4978394;28;20286;-85
2023/03/11 00:38:53;;;;;;;2.65;1.23;;;3.70;99.90;;;;;;4951317;28;20028;-87
2023/03/11 00:41:19;;;;;;;2.30;1.17;;;3.70;99.90;;;;;;4978274;28;20045;-87
2023/03/11 00:43:45;;;;;;;3.78;1.40;;;3.70;99.90;;;;;;4984078;28;20479;-87
2023/03/11 00:46:11;;;;;;;3.43;1.20;;;3.70;99.90;;;;;;4991729;28;20104;-85
2023/03/11 00:48:37;;;;;;;3.00;1.40;;;3.60;99.90;;;;;;4975677;28;20030;-87
2023/03/11 00:51:03;;;;;;;3.00;1.40;;;3.60;99.90;;;;;;4988412;28;20026;-85
2023/03/11 00:53:29;;;;;;;5.20;1.70;;;3.60;99.90;;;;;;4956073;28;20133;-86
2023/03/11 00:55:54;;;;;;;3.38;1.70;;;3.50;99.90;;;;;;5006773;28;20054;-86
2023/03/11 00:58:26;;;;;;;3.73;1.80;;;3.50;99.90;;;;;;4986806;28;20025;-85
2023/03/11 01:00:51;;;;;;;4.32;1.60;;;3.50;99.90;;;;;;4969227;28;20092;-87
2023/03/11 01:03:17;;;;;;;3.47;1.45;;;3.40;99.90;;;;;;5009572;28;20037;-86
2023/03/11 01:05:43;;;;;;;4.60;1.50;;;3.40;99.90;;;;;;4977191;28;20591;-86
2023/03/11 01:08:09;;;;;;;3.63;1.50;;;3.30;99.90;;;;;;4954476;28;20050;-86
2023/03/11 01:10:35;;;;;;;2.72;1.38;;;3.20;99.90;;;;;;4977442;28;20026;-86
2023/03/11 01:13:01;;;;;;;3.38;1.17;;;3.20;99.90;;;;;;4963748;28;20050;-85
2023/03/11 01:15:31;;;;;;;2.75;1.38;;;3.20;99.90;;;;;;4989449;28;20105;-86
2023/03/11 01:17:56;;;;;;;3.50;1.20;;;3.10;99.90;;;;;;4989460;28;20263;-86
2023/03/11 01:20:22;;;;;;;3.35;1.30;;;3.10;99.90;;;;;;4994554;28;20026;-84
2023/03/11 01:22:48;;;;;;;3.47;1.40;;;3.00;99.90;;;;;;4991282;28;20029;-86
2023/03/11 01:25:16;;;;;;;3.95;1.20;;;3.00;99.90;;;;;;4971384;28;20033;-86
2023/03/11 01:27:42;;;;;;;2.88;1.25;;;3.00;99.90;;;;;;4982107;28;20034;-86
2023/03/11 01:30:11;;;;;;;3.83;1.57;;;3.00;99.90;;;;;;4971782;28;20128;-84
2023/03/11 01:32:37;;;;;;;2.83;1.40;;;3.00;99.90;;;;;;4979749;28;20066;-86
2023/03/11 01:35:03;;;;;;;2.63;1.10;;;3.10;99.90;;;;;;4997449;28;20710;-86
2023/03/11 01:37:28;;;;;;;3.73;1.23;;;3.10;99.90;;;;;;4979736;28;20435;-85
2023/03/11 01:39:54;;;;;;;2.42;1.05;;;3.10;99.90;;;;;;4966156;28;20412;-85
2023/03/11 01:42:20;;;;;;;3.10;1.20;;;3.20;99.90;;;;;;4994934;28;20447;-85
2023/03/11 01:44:46;;;;;;;2.85;1.33;;;3.20;99.90;;;;;;4981733;28;20534;-87
2023/03/11 01:47:11;;;;;;;2.90;1.37;;;3.30;99.90;;;;;;4996104;28;20230;-84
2023/03/11 01:49:40;;;;;;;2.20;1.20;;;3.30;99.90;;;;;;5012218;28;20037;-86
2023/03/11 01:52:07;;;;;;;2.85;1.30;;;3.30;99.90;;;;;;4977274;28;20033;-86
2023/03/11 01:54:36;;;;;;;2.65;1.20;;;3.40;99.90;;;;;;4974716;28;20033;-86
2023/03/11 01:57:06;;;;;;;3.37;1.20;;;3.40;99.90;;;;;;4978241;28;20144;-85
2023/03/11 01:59:46;;;;;;;3.35;1.27;;;3.50;99.90;;;;;;4979140;28;20028;-85
2023/03/11 02:02:18;;;;;;;3.42;1.23;;;3.50;99.90;;;;;;4992624;28;20595;-85
2023/03/11 02:04:45;;;;;;;5.07;1.20;;;3.60;99.90;;;;;;4994866;28;20235;-87
2023/03/11 02:07:11;;;;;;;3.72;1.13;;;3.60;99.90;;;;;;4978213;28;20297;-84
2023/03/11 02:09:37;;;;;;;2.60;1.20;;;3.70;99.90;;;;;;5023601;28;20271;-87
2023/03/11 02:12:05;;;;;;;2.47;1.20;;;3.70;99.90;;;;;;4976087;28;20029;-86
2023/03/11 02:14:31;;;;;;;2.58;1.00;;;3.70;99.90;;;;;;5012932;28;20075;-86
2023/03/11 02:16:58;;;;;;;3.10;1.23;;;3.70;99.90;;;;;;4982785;28;20038;-85
2023/03/11 02:19:39;;;;;;;3.77;1.40;;;3.80;99.90;;;;;;4981436;28;20061;-84
2023/03/11 02:22:05;;;;;;;2.70;1.10;;;3.80;99.90;;;;;;4978355;28;20273;-84
2023/03/11 02:25:00;;;;;;;3.15;1.10;;;3.80;99.90;;;;;;4991632;28;20014;-85
2023/03/11 02:27:27;;;;;;;2.90;1.05;;;3.80;99.90;;;;;;4956709;28;20038;-84
2023/03/11 02:29:55;;;;;;;3.58;1.50;;;3.80;99.90;;;;;;4986530;28;20022;-87
2023/03/11 02:32:21;;;;;;;2.40;0.93;;;3.80;99.90;;;;;;4996539;28;20149;-85
2023/03/11 02:34:47;;;;;;;2.28;1.00;;;3.90;99.90;;;;;;5011132;28;20368;-87
2023/03/11 02:37:15;;;;;;;2.22;1.10;;;3.80;99.90;;;;;;4997199;28;20371;-86
2023/03/11 02:39:44;;;;;;;3.07;1.07;;;3.80;99.90;;;;;;5009068;28;20468;-87
2023/03/11 02:42:17;;;;;;;1.75;1.15;;;3.80;99.90;;;;;;4970848;28;20216;-85
2023/03/11 02:44:47;;;;;;;1.88;1.15;;;3.80;99.90;;;;;;4988987;28;20037;-87
2023/03/11 02:47:13;;;;;;;2.47;1.10;;;3.80;99.90;;;;;;5009635;28;20029;-84
2023/03/11 02:49:39;;;;;;;2.63;1.30;;;3.80;99.90;;;;;;4967943;28;20022;-87
2023/03/11 02:52:05;;;;;;;2.37;1.27;;;3.80;99.90;;;;;;4976753;28;20148;-84
2023/03/11 02:54:31;;;;;;;2.38;1.10;;;3.80;99.90;;;;;;4977679;28;20480;-84
2023/03/11 02:56:57;;;;;;;4.67;1.17;;;3.80;99.90;;;;;;4970233;28;20216;-84
2023/03/11 02:59:22;;;;;;;2.83;1.17;;;3.80;99.90;;;;;;4995903;28;20273;-84
2023/03/11 03:01:48;;;;;;;2.85;1.25;;;3.70;99.90;;;;;;4983370;28;20026;-86
2023/03/11 03:04:14;;;;;;;3.23;1.10;;;3.70;99.90;;;;;;4977645;28;20014;-85
2023/03/11 03:06:40;;;;;;;3.22;1.10;;;3.70;99.90;;;;;;4978584;28;20038;-86
2023/03/11 03:09:05;;;;;;;3.50;1.20;;;3.60;99.90;;;;;;4993265;28;20220;-86
2023/03/11 03:11:31;;;;;;;3.47;1.10;;;3.60;99.90;;;;;;4997057;28;20036;-84
2023/03/11 03:13:57;;;;;;;2.03;1.10;;;3.60;99.90;;;;;;4985654;28;20159;-84
2023/03/11 03:16:22;;;;;;;3.10;1.10;;;3.60;99.90;;;;;;4982106;28;20029;-86
2023/03/11 03:18:48;;;;;;;3.83;1.00;;;3.60;99.90;;;;;;4977043;28;20144;-87
2023/03/11 03:21:14;;;;;;;3.35;1.20;;;3.60;99.90;;;;;;4980368;28;20026;-86
2023/03/11 03:23:39;;;;;;;2.10;1.00;;;3.60;99.90;;;;;;4978539;28;20030;-87
2023/03/11 03:26:05;;;;;;;2.78;1.08;;;3.60;99.90;;;;;;4980494;28;20052;-86
2023/03/11 03:28:31;;;;;;;1.80;0.93;;;3.60;99.90;;;;;;4975633;28;20063;-87
2023/03/11 03:31:04;;;;;;;2.60;1.20;;;3.60;99.90;;;;;;5010389;28;20322;-84
2023/03/11 03:33:30;;;;;;;3.60;1.20;;;3.60;99.90;;;;;;4991062;28;20037;-85
2023/03/11 03:35:56;;;;;;;3.25;1.15;;;3.60;99.90;;;;;;4988956;28;20285;-85
2023/03/11 03:38:21;;;;;;;2.57;1.10;;;3.60;99.90;;;;;;4996935;28;20033;-85
2023/03/11 03:40:47;;;;;;;2.63;1.20;;;3.50;99.90;;;;;;4995064;28;21003;-86
2023/03/11 03:43:13;;;;;;;2.70;1.10;;;3.50;99.90;;;;;;4961787;28;20595;-85
2023/03/11 03:45:39;;;;;;;3.30;1.08;;;3.50;99.90;;;;;;4997693;28;20025;-85
2023/03/11 03:48:05;;;;;;;3.17;1.20;;;3.40;99.90;;;;;;4986298;28;20664;-83
2023/03/11 03:50:31;;;;;;;4.28;1.20;;;3.40;99.90;;;;;;4997420;28;20022;-84
2023/03/11 03:52:57;;;;;;;2.80;1.15;;;3.30;99.90;;;;;;4995924;28;20234;-84
2023/03/11 03:55:23;;;;;;;2.80;1.13;;;3.20;99.90;;;;;;5000738;28;20031;-84
2023/03/11 03:57:48;;;;;;;3.13;1.40;;;3.20;99.90;;;;;;4991557;28;20044;-86
2023/03/11 04:00:14;;;;;;;2.47;1.20;;;3.20;99.90;;;;;;4971463;28;20025;-84
2023/03/11 04:02:40;;;;;;;2.38;1.13;;;3.10;99.90;;;;;;4975748;28;20029;-87
2023/03/11 04:05:07;;;;;;;3.28;1.20;;;3.10;99.90;;;;;;4973169;28;20220;-85
2023/03/11 04:07:34;;;;;;;2.85;1.10;;;3.10;99.90;;;;;;4985206;28;20065;-84
2023/03/11 04:10:00;;;;;;;2.53;1.10;;;3.00;99.90;;;;;;4987933;28;20720;-84
2023/03/11 04:12:26;;;;;;;3.10;1.20;;;3.00;99.90;;;;;;4981065;28;20029;-85
2023/03/11 04:14:52;;;;;;;2.70;1.30;;;2.90;99.90;;;;;;4958206;28;20088;-85
2023/03/11 04:17:17;;;;;;;3.33;1.30;;;2.90;99.90;;;;;;5014158;28;20045;-85
2023/03/11 04:19:43;;;;;;;2.35;1.00;;;2.90;99.90;;;;;;4986289;28;20021;-86
2023/03/11 04:22:09;;;;;;;2.28;1.20;;;2.90;99.90;;;;;;4999356;28;20667;-85
2023/03/11 04:24:35;;;;;;;2.53;1.00;;;2.80;99.90;;;;;;4990378;28;20026;-86
2023/03/11 04:27:01;;;;;;;5.15;1.40;;;2.80;99.90;;;;;;4978277;28;20113;-84
2023/03/11 04:29:26;;;;;;;3.57;1.70;;;2.70;99.90;;;;;;4985158;28;20017;-85
2023/03/11 04:31:52;;;;;;;4.97;2.15;;;2.70;99.90;;;;;;4972858;28;20065;-85
2023/03/11 04:34:17;;;;;;;6.30;1.90;;;2.70;99.90;;;;;;4988915;28;20121;-83
2023/03/11 04:36:43;;;;;;;4.23;2.00;;;2.70;99.90;;;;;;4978520;28;20022;-86
2023/03/11 04:39:09;;;;;;;5.03;1.88;;;2.60;99.90;;;;;;4994223;28;20714;-84
2023/03/11 04:41:35;;;;;;;5.13;2.40;;;2.60;99.90;;;;;;5007014;28;20029;-85
2023/03/11 04:44:01;;;;;;;4.88;2.10;;;2.60;99.90;;;;;;4985112;28;20565;-83
2023/03/11 04:46:26;;;;;;;3.13;1.60;;;2.50;99.90;;;;;;4974586;28;20025;-85
2023/03/11 04:48:52;;;;;;;4.13;1.80;;;2.50;99.90;;;;;;4982668;28;20276;-85
2023/03/11 04:51:18;;;;;;;2.60;1.70;;;2.50;99.90;;;;;;5002764;28;20678;-84
2023/03/11 04:53:43;;;;;;;2.95;1.80;;;2.40;99.90;;;;;;4975418;28;20026;-84
2023/03/11 04:56:09;;;;;;;3.97;1.50;;;2.50;99.90;;;;;;4997986;28;20296;-84
2023/03/11 04:58:35;;;;;;;2.63;1.20;;;2.40;99.90;;;;;;4994758;28;20025;-86
2023/03/11 05:01:00;;;;;;;2.13;1.10;;;2.40;99.90;;;;;;4974769;28;22263;-83
2023/03/11 05:03:26;;;;;;;2.67;1.30;;;2.40;99.90;;;;;;4995218;28;20432;-86
2023/03/11 05:05:55;;;;;;;2.20;1.07;;;2.30;99.90;;;;;;4989533;28;20118;-84
2023/03/11 05:08:22;;;;;;;3.53;1.27;;;2.30;99.90;;;;;;4985944;28;20356;-83
2023/03/11 05:10:47;;;;;;;3.30;1.33;;;2.30;99.90;;;;;;4979026;28;20060;-84
2023/03/11 05:13:13;;;;;;;2.43;1.20;;;2.30;99.90;;;;;;4993033;28;20029;-85
2023/03/11 05:15:39;;;;;;;3.78;1.10;;;2.20;99.90;;;;;;4995835;28;20025;-86
2023/03/11 05:18:04;;;;;;;2.30;0.90;;;2.20;99.90;;;;;;4978339;28;20117;-85
2023/03/11 05:20:31;;;;;;;3.08;1.20;;;2.20;99.90;;;;;;4999376;28;20687;-86
2023/03/11 05:22:57;;;;;;;2.88;1.30;;;2.20;99.90;;;;;;4989911;28;20127;-85
2023/03/11 05:25:22;;;;;;;3.40;1.40;;;2.20;99.90;;;;;;4982761;28;20034;-86
2023/03/11 05:27:48;;;;;;;3.35;1.40;;;2.10;99.90;;;;;;4976865;28;20530;-84
2023/03/11 05:30:14;;;;;;;2.30;1.30;;;2.10;99.90;;;;;;4983485;28;20440;-82
2023/03/11 05:32:40;;;;;;;2.50;1.40;;;2.10;99.90;;;;;;4976060;28;20026;-86
2023/03/11 05:35:06;;;;;;;3.17;1.25;;;2.10;99.90;;;;;;5016137;28;20029;-84
2023/03/11 05:37:32;;;;;;;2.70;1.13;;;2.10;99.90;;;;;;4998094;28;20068;-86
2023/03/11 05:39:57;;;;;;;2.60;1.27;;;2.10;99.90;;;;;;5012312;28;20703;-84
2023/03/11 05:42:23;;;;;;;2.17;1.20;;;2.00;99.90;;;;;;5030431;28;20028;-86
2023/03/11 05:44:49;;;;;;;3.25;1.30;;;2.00;99.90;;;;;;4993030;28;20025;-84
2023/03/11 05:47:16;;;;;;;2.63;1.30;;;2.00;99.90;;;;;;5002923;28;20037;-85
2023/03/11 05:49:42;;;;;;;4.03;1.40;;;2.00;99.90;;;;;;4976481;28;20566;-84
2023/03/11 05:52:08;;;;;;;3.42;1.50;;;2.00;99.90;;;;;;4997857;28;20380;-83
2023/03/11 05:54:34;;;;;;;3.60;1.50;;;2.00;99.90;;;;;;4974529;28;20057;-86
2023/03/11 05:56:59;;;;;;;3.15;1.70;;;1.90;99.90;;;;;;5003893;28;20041;-84
2023/03/11 05:59:25;;;;;;;2.50;1.60;;;1.90;99.90;;;;;;4982668;28;20013;-86
2023/03/11 06:01:51;;;;;;;3.13;1.67;;;1.90;99.90;;;;;;4990007;28;20032;-85
2023/03/11 06:04:17;;;;;;;3.08;1.48;;;1.90;99.90;;;;;;4972317;28;20208;-86
2023/03/11 06:06:42;;;;;;;2.43;1.63;;;1.90;99.90;;;;;;4977927;28;20805;-83
2023/03/11 06:09:14;;;;;;;3.72;1.70;;;1.90;99.90;;;;;;4975284;28;20060;-85
2023/03/11 06:11:40;;;;;;;2.63;1.23;;;1.80;99.90;;;;;;4999722;28;20391;-85
2023/03/11 06:14:09;;;;;;;3.17;1.60;;;1.80;99.90;;;;;;4983624;28;20041;-85
2023/03/11 06:16:35;;;;;;;3.25;1.70;;;1.80;99.90;;;;;;4980771;28;20376;-83
2023/03/11 06:19:01;;;;;;;3.40;1.70;;;1.80;99.90;;;;;;4998125;28;20109;-85
2023/03/11 06:21:27;;;;;;;2.58;1.50;;;1.80;99.90;;;;;;4989796;28;21651;-83
2023/03/11 06:23:52;;;;;;;2.95;1.50;;;1.80;99.90;;;;;;5018101;28;20441;-84
2023/03/11 06:26:20;;;;;;;2.93;1.47;;;1.70;99.90;;;;;;4961519;28;20079;-84
2023/03/11 06:28:46;;;;;;;3.88;1.50;;;1.70;99.90;;;;;;4986126;28;20037;-84
2023/03/11 06:31:21;;;;;;;4.07;1.60;;;1.80;99.90;;;;;;4972247;28;20083;-86
2023/03/11 06:33:47;;;;;;;4.35;1.75;;;1.70;99.90;;;;;;5015197;28;20401;-85
2023/03/11 06:36:17;;;;;;;3.20;1.73;;;1.70;99.90;;;;;;4969617;28;20033;-86
2023/03/11 06:38:43;;;;;;;2.73;1.60;;;1.80;99.90;;;;;;4985674;28;20688;-85
2023/03/11 06:41:09;;;;;;;4.00;1.70;;;1.70;99.90;;;;;;4979479;28;20045;-85
2023/03/11 06:43:35;;;;;;;3.17;1.63;;;1.70;99.90;;;;;;4994555;28;20105;-86
2023/03/11 06:46:06;;;;;;;3.17;1.50;;;1.70;99.90;;;;;;5009429;28;20025;-85
2023/03/11 06:48:32;;;;;;;3.47;1.47;;;1.70;99.90;;;;;;5011132;28;20676;-85
2023/03/11 06:50:59;;;;;;;3.65;1.85;;;1.80;99.90;;;;;;4958881;28;20163;-84
2023/03/11 06:53:26;;;;;;;3.03;1.70;;;1.80;99.90;;;;;;4976159;28;20195;-85
2023/03/11 06:56:03;;;;;;;3.53;2.07;;;1.80;99.90;;;;;;4978255;28;20035;-85
2023/03/11 06:58:30;;;;;;;4.32;1.80;;;1.80;99.90;;;;;;4991054;28;20018;-85
2023/03/11 07:01:05;;;;;;;4.05;2.00;;;1.90;99.90;;;;;;4994747;28;21008;-84
2023/03/11 07:03:31;;;;;;;4.25;2.33;;;1.90;99.90;;;;;;4996017;28;20022;-85
2023/03/11 07:05:57;;;;;;;3.90;1.97;;;2.00;99.90;;;;;;4960811;28;20583;-83
2023/03/11 07:08:23;;;;;;;4.30;2.50;;;2.20;99.90;;;;;;4972672;28;20029;-88
2023/03/11 07:11:11;;;;;;;6.50;2.67;;;2.30;99.90;;;;;;4970934;28;21252;-87
2023/03/11 07:13:37;;;;;;;4.30;2.67;;;2.50;99.90;;;;;;5009274;28;20051;-88
2023/03/11 07:16:09;;;;;;;6.00;2.80;;;2.70;99.90;;;;;;5012728;28;20033;-88
2023/03/11 07:18:35;;;;;;;4.53;2.40;;;2.90;99.90;;;;;;4993960;28;20109;-88
2023/03/11 07:21:05;;;;;;;4.28;2.28;;;3.10;99.90;;;;;;4990322;28;20664;-85
2023/03/11 07:23:32;;;;;;;4.40;2.50;;;3.30;99.90;;;;;;4969052;28;20029;-86
2023/03/11 07:25:57;;;;;;;6.57;2.40;;;3.40;99.90;;;;;;4983800;28;20488;-84
2023/03/11 07:28:24;;;;;;;4.88;2.67;;;3.60;99.90;;;;;;4985738;28;20366;-85
2023/03/11 07:30:51;;;;;;;4.22;2.15;;;3.70;99.90;;;;;;4977295;28;20688;-88
2023/03/11 07:33:16;;;;;;;5.30;2.20;;;3.80;99.90;;;;;;4997187;28;20033;-85
2023/03/11 07:35:43;;;;;;;3.85;2.13;;;4.00;99.90;;;;;;4970616;28;20863;-85
2023/03/11 07:38:08;;;;;;;5.43;1.95;;;4.30;99.90;;;;;;4992338;28;20026;-86
2023/03/11 07:40:34;;;;;;;5.15;2.40;;;4.80;99.90;;;;;;4974466;28;20087;-86
2023/03/11 07:43:00;;;;;;;3.17;1.97;;;5.30;99.90;;;;;;4980430;28;20033;-85
2023/03/11 07:45:26;;;;;;;5.93;2.80;;;5.90;99.90;;;;;;4996250;28;20025;-86
2023/03/11 07:47:52;;;;;;;10.37;3.37;;;6.50;99.90;;;;;;4991147;28;20036;-86
2023/03/11 07:50:18;;;;;;;5.07;2.30;;;7.10;99.90;;;;;;5013949;28;20052;-86
2023/03/11 07:52:44;;;;;;;3.85;2.13;;;7.70;99.90;;;;;;4957466;28;20320;-85
2023/03/11 07:55:09;;;;;;;2.73;1.87;;;8.30;99.90;;;;;;5003656;28;20084;-85
2023/03/11 07:57:35;;;;;;;3.20;1.60;;;8.90;99.90;;;;;;4979492;28;20108;-86
2023/03/11 08:00:01;;;;;;;3.10;1.50;;;9.50;99.90;;;;;;4980138;28;20018;-85
2023/03/11 08:02:27;;;;;;;2.47;1.60;;;10.00;99.90;;;;;;4992661;28;20025;-87
2023/03/11 08:04:54;;;;;;;2.70;1.57;;;10.50;99.90;;;;;;4991026;28;20153;-84
2023/03/11 08:07:20;;;;;;;3.97;1.93;;;10.90;99.90;;;;;;4994174;28;20370;-87
2023/03/11 08:09:45;;;;;;;3.15;1.70;;;11.40;99.90;;;;;;4968194;28;20273;-84
2023/03/11 08:12:11;;;;;;;2.33;1.47;;;11.80;99.90;;;;;;4972650;28;20030;-85
2023/03/11 08:14:38;;;;;;;3.63;1.83;;;12.20;99.90;;;;;;4981720;28;20041;-87
2023/03/11 08:17:04;;;;;;;2.90;1.80;;;12.60;99.90;;;;;;4982239;28;20035;-84
2023/03/11 08:19:30;;;;;;;2.60;1.80;;;13.00;99.90;;;;;;4977082;28;20041;-85
2023/03/11 08:21:55;;;;;;;2.22;1.52;;;13.50;99.90;;;;;;4998192;28;20104;-86
2023/03/11 08:24:21;;;;;;;3.23;1.80;;;13.80;99.90;;;;;;4992860;28;20033;-86
2023/03/11 08:26:46;;;;;;;2.90;1.80;;;14.20;99.90;;;;;;4983744;28;20453;-83
2023/03/11 08:29:12;;;;;;;3.50;1.90;;;14.50;99.90;;;;;;4969230;28;20367;-85
2023/03/11 08:31:38;;;;;;;3.80;2.07;;;14.80;99.90;;;;;;4975175;28;20431;-86
2023/03/11 08:34:07;;;;;;;4.22;2.05;;;15.00;99.90;;;;;;4985127;28;20521;-84
2023/03/11 08:36:33;;;;;;;4.18;1.95;;;15.30;99.90;;;;;;4990589;28;20030;-87
2023/03/11 08:38:59;;;;;;;3.90;2.30;;;15.50;99.90;;;;;;4965047;28;20044;-84
2023/03/11 08:41:26;;;;;;;4.25;2.05;;;15.70;99.90;;;;;;4978967;28;20025;-86
2023/03/11 08:43:52;;;;;;;4.47;2.17;;;15.90;99.90;;;;;;4962390;28;20200;-85
2023/03/11 08:46:21;;;;;;;4.45;2.10;;;16.10;99.90;;;;;;4998923;28;20041;-86
2023/03/11 08:48:46;;;;;;;3.53;1.60;;;16.30;99.90;;;;;;4981680;28;20071;-85
2023/03/11 08:51:12;;;;;;;4.63;1.70;;;16.50;99.90;;;;;;5009028;28;20145;-87
2023/03/11 08:53:38;;;;;;;4.17;1.93;;;16.80;99.90;;;;;;4979263;28;20021;-87
2023/03/11 08:56:04;;;;;;;2.97;1.73;;;17.00;99.90;;;;;;4958702;28;20107;-88
2023/03/11 08:58:30;;;;;;;3.72;1.65;;;17.30;99.90;;;;;;4976770;28;20665;-84
2023/03/11 09:00:56;;;;;;;2.83;1.60;;;17.50;99.90;;;;;;4980183;28;20610;-85
2023/03/11 09:03:22;;;;;;;2.65;1.40;;;17.70;99.90;;;;;;4976977;28;20032;-86
2023/03/11 09:05:47;;;;;;;2.67;1.40;;;18.00;99.90;;;;;;5004101;28;20033;-88
2023/03/11 09:08:13;;;;;;;3.70;1.67;;;18.10;99.90;;;;;;4991204;28;20029;-87
2023/03/11 09:10:39;;;;;;;3.45;1.58;;;18.30;99.90;;;;;;4962117;28;20075;-89
2023/03/11 09:13:05;;;;;;;2.35;1.67;;;18.50;99.90;;;;;;4978082;28;20413;-88
2023/03/11 09:15:31;;;;;;;3.23;1.53;;;18.70;99.90;;;;;;5009720;28;20036;-88
2023/03/11 09:17:58;;;;;;;2.97;1.30;;;18.90;99.90;;;;;;4966983;28;20742;-87
2023/03/11 09:20:24;;;;;;;2.33;1.23;;;19.10;99.90;;;;;;4977007;28;20128;-89
2023/03/11 09:22:49;;;;;;;2.37;1.10;;;19.30;99.90;;;;;;4990856;28;20112;-88
2023/03/11 09:25:15;;;;;;;2.13;1.13;;;19.50;99.90;;;;;;4993937;28;20553;-86
2023/03/11 09:27:41;;;;;;;2.93;1.00;;;19.70;99.90;;;;;;4972463;28;20196;-88
2023/03/11 09:30:09;;;;;;;2.25;0.93;;;19.80;99.90;;;;;;4967366;28;20044;-85
2023/03/11 09:32:34;;;;;;;2.75;1.00;;;19.90;99.90;;;;;;4988432;28;20033;-87
2023/03/11 09:35:00;;;;;;;1.47;1.00;;;20.00;99.90;;;;;;4993266;28;20038;-86
2023/03/11 09:37:28;;;;;;;2.65;1.00;;;20.10;99.90;;;;;;5014303;28;20025;-86
2023/03/11 09:39:54;;;;;;;2.97;1.10;;;20.20;99.90;;;;;;4976372;28;20029;-85
2023/03/11 09:42:41;;;;;;;2.80;0.90;;;20.30;99.90;;;;;;4966849;28;20049;-86
2023/03/11 09:45:21;;;;;;;1.45;0.95;;;20.50;99.90;;;;;;4982029;28;20038;-85
2023/03/11 09:47:58;;;;;;;2.13;1.00;;;20.60;99.90;;;;;;4984872;28;20044;-87
2023/03/11 09:50:24;;;;;;;2.47;1.00;;;20.80;99.90;;;;;;4979599;28;20030;-86
2023/03/11 09:53:17;;;;;;;1.85;0.80;;;20.90;99.90;;;;;;4980031;28;20052;-88
2023/03/11 09:55:50;;;;;;;1.10;0.60;;;21.10;99.90;;;;;;4982257;28;20564;-88
2023/03/11 09:58:35;;;;;;;1.63;0.80;;;21.20;99.90;;;;;;4974730;28;20025;-86
2023/03/11 10:01:07;;;;;;;1.33;0.75;;;21.20;99.90;;;;;;4985142;28;20228;-87
2023/03/11 10:03:34;;;;;;;0.90;0.60;;;21.20;99.90;;;;;;4988261;28;20026;-86
2023/03/11 10:06:22;;;;;;;1.88;1.00;;;21.20;99.90;;;;;;4996895;28;20025;-85
2023/03/11 10:09:26;;;;;;;1.70;0.67;;;21.00;99.00;;;;;;4998381;28;20490;-87
2023/03/11 10:12:13;;;;;;;1.02;0.60;;;20.80;97.30;;;;;;4976069;28;20056;-87
2023/03/11 10:14:48;;;;;;;1.10;0.70;;;20.70;99.70;;;;;;4995823;28;20026;-88
2023/03/11 10:17:40;;;;;;;2.28;0.80;;;20.50;99.90;;;;;;4974286;28;20544;-85
2023/03/11 10:20:16;;;;;;;2.13;0.68;;;20.40;99.90;;;;;;5007021;28;20661;-84
2023/03/11 10:22:49;;;;;;;1.77;0.73;;;20.40;99.90;;;;;;4973641;28;20053;-85
2023/03/11 10:25:23;;;;;;;1.55;0.80;;;20.50;99.90;;;;;;5003544;28;20415;-86
2023/03/11 10:28:17;;;;;;;1.33;0.73;;;20.70;99.90;;;;;;4967468;28;21185;-87
2023/03/11 10:31:02;;;;;;;2.90;0.70;;;21.00;99.90;;;;;;4965544;28;20199;-87
2023/03/11 10:33:47;;;;;;;2.22;0.70;;;21.20;99.90;;;;;;4985831;28;20077;-85
2023/03/11 10:36:23;;;;;;;2.63;0.60;;;21.30;99.90;;;;;;5031464;28;20091;-86
2023/03/11 10:38:53;;;;;;;1.73;0.60;;;21.20;99.90;;;;;;5008577;28;20038;-86
2023/03/11 10:41:57;;;;;;;1.27;0.70;;;21.00;99.90;;;;;;4999517;28;20037;-84
2023/03/11 10:44:33;;;;;;;1.67;0.52;;;20.70;96.60;;;;;;4990246;28;20478;-85
2023/03/11 10:47:00;;;;;;;1.45;0.70;;;20.50;99.90;;;;;;4983872;28;20843;-84
2023/03/11 10:49:26;;;;;;;2.30;0.87;;;20.50;99.90;;;;;;4981010;28;20029;-87
2023/03/11 10:51:53;;;;;;;2.00;0.70;;;20.50;99.90;;;;;;5024352;28;20733;-85
2023/03/11 10:54:30;;;;;;;2.53;0.88;;;20.60;99.90;;;;;;4995049;28;20406;-85
2023/03/11 10:57:05;;;;;;;1.92;0.93;;;20.60;99.90;;;;;;4997141;28;20021;-83
2023/03/11 10:59:46;;;;;;;2.53;0.60;;;20.50;99.90;;;;;;4986166;28;20048;-87
2023/03/11 11:02:40;;;;;;;1.88;0.68;;;20.60;99.90;;;;;;4982029;28;20441;-84
2023/03/11 11:05:26;;;;;;;1.58;0.80;;;20.70;99.90;;;;;;4989034;28;20041;-86
2023/03/11 11:08:03;;;;;;;2.67;0.80;;;20.90;99.90;;;;;;4981279;28;20183;-85
2023/03/11 11:10:29;;;;;;;1.42;0.80;;;21.00;99.90;;;;;;4977873;28;20036;-87
2023/03/11 11:13:11;;;;;;;1.40;0.80;;;21.20;99.90;;;;;;5011280;28;20025;-85
2023/03/11 11:15:41;;;;;;;0.85;0.70;;;21.30;99.90;;;;;;4965267;28;20517;-87
2023/03/11 11:18:21;;;;;;;1.20;0.60;;;21.40;99.90;;;;;;4984932;28;20386;-85
2023/03/11 11:20:55;;;;;;;3.05;0.70;;;21.50;99.90;;;;;;4983696;28;20276;-84
2023/03/11 11:23:49;;;;;;;3.00;0.90;;;21.70;99.90;;;;;;4996012;28;20121;-85
2023/03/11 11:26:24;;;;;;;1.40;0.70;;;21.70;96.80;;;;;;4980014;28;20048;-85
2023/03/11 11:29:08;;;;;;;1.05;0.60;;;21.60;99.90;;;;;;4993749;28;20252;-85
2023/03/11 11:31:38;;;;;;;1.00;0.70;;;21.20;93.80;;;;;;4985321;28;20030;-87
2023/03/11 11:34:29;;;;;;;1.00;0.60;;;20.80;99.90;;;;;;4998964;28;20087;-84
2023/03/11 11:37:03;;;;;;;0.75;0.70;;;20.50;98.50;;;;;;5002611;28;20044;-86
2023/03/11 11:39:35;;;;;;;2.60;0.90;;;20.50;99.90;;;;;;5028242;28;20467;-83
2023/03/11 11:42:02;;;;;;;2.75;0.82;;;20.60;99.90;;;;;;4988648;28;20411;-87
2023/03/11 11:44:33;;;;;;;1.90;0.70;;;20.70;99.90;;;;;;4992339;28;20014;-84
2023/03/11 11:47:10;;;;;;;1.55;0.70;;;20.80;99.90;;;;;;4975306;28;20504;-87
2023/03/11 11:49:36;;;;;;;2.45;0.80;;;20.90;99.90;;;;;;4998723;28;20560;-86
2023/03/11 11:52:11;;;;;;;1.10;0.80;;;20.90;99.90;;;;;;4994740;28;20055;-87
2023/03/11 11:54:51;;;;;;;1.85;0.70;;;21.00;99.90;;;;;;4988145;28;20299;-84
2023/03/11 11:57:19;;;;;;;2.03;0.90;;;21.10;99.90;;;;;;4995593;28;20487;-85
2023/03/11 11:59:46;;;;;;;1.60;0.70;;;21.30;99.90;;;;;;4985044;28;20025;-86
2023/03/11 12:02:39;;;;;;;1.63;0.90;;;21.30;99.90;;;;;;4942650;28;20183;-85
2023/03/11 12:05:33;;;;;;;1.90;1.00;;;21.50;99.90;;;;;;5000043;28;20033;-87
2023/03/11 12:08:15;;;;;;;2.88;0.90;;;21.60;99.50;;;;;;4996347;28;20033;-87
2023/03/11 12:10:54;;;;;;;2.05;1.00;;;21.60;99.90;;;;;;4978886;28;20486;-85
2023/03/11 12:13:46;;;;;;;1.83;0.80;;;21.70;99.90;;;;;;4987530;28;20519;-84
2023/03/11 12:16:25;;;;;;;1.45;0.70;;;21.70;99.90;;;;;;4988558;28;20638;-84
2023/03/11 12:19:04;;;;;;;1.60;0.90;;;21.80;99.90;;;;;;4990546;28;20033;-87
2023/03/11 12:21:42;;;;;;;1.27;0.70;;;21.90;99.90;;;;;;5013411;28;20018;-87
2023/03/11 12:24:18;;;;;;;3.40;1.00;;;22.00;99.90;;;;;;5005407;28;20049;-82
2023/03/11 12:26:45;;;;;;;2.58;0.82;;;22.10;99.90;;;;;;5012806;28;20554;-82
2023/03/11 12:29:17;;;;;;;2.13;0.93;;;22.10;99.90;;;;;;4979329;28;20486;-81
2023/03/11 12:31:44;;;;;;;3.97;0.70;;;22.10;99.90;;;;;;4980173;28;20607;-81
2023/03/11 12:34:13;;;;;;;2.15;0.80;;;22.10;99.90;;;;;;4968012;28;20104;-80
2023/03/11 12:36:42;;;;;;;2.45;0.70;;;22.10;99.90;;;;;;4982985;28;20037;-81
2023/03/11 12:39:21;;;;;;;3.58;1.20;;;22.20;99.90;;;;;;4984027;28;20026;-80
2023/03/11 12:41:46;;;;;;;2.95;0.82;;;22.40;99.90;;;;;;4979215;28;20033;-80
2023/03/11 12:44:32;;;;;;;2.53;0.77;;;22.50;99.90;;;;;;4985969;28;20025;-82
2023/03/11 12:46:58;;;;;;;1.10;0.80;;;22.60;99.90;;;;;;4979479;28;20049;-83
2023/03/11 12:49:39;;;;;;;1.00;0.80;;;22.70;99.90;;;;;;4940751;28;20226;-80
2023/03/11 12:52:08;;;;;;;3.05;0.90;;;22.70;99.90;;;;;;5008657;28;20025;-82
2023/03/11 12:54:35;;;;;;;0.93;0.70;;;22.70;99.90;;;;;;4968621;28;20159;-80
2023/03/11 12:57:09;;;;;;;1.42;0.80;;;22.70;99.90;;;;;;4996796;28;20113;-81
2023/03/11 13:00:16;;;;;;;2.40;0.83;;;22.80;99.90;;;;;;5014793;28;20341;-79
2023/03/11 13:02:42;;;;;;;1.50;0.80;;;23.10;99.60;;;;;;5023908;28;20045;-82
2023/03/11 13:05:28;;;;;;;1.27;0.80;;;23.30;99.90;;;;;;4985125;28;20038;-83